Bremer Johanna — DEBK — position and weather

sailwx.info

Track history (hours):
 
Tides and Currents Weather Stations Pressure Air Temp Water Temp Dewpoint Dewpoint Depression Visibility Wind Speed Wind Dir Waves Ship Positions

Bremer Johanna

Last reported at 2017-Oct-17 00:20 UTC. Time now 2017-Oct-19 16:28 UTC.
Position N 36°59' E 012°31'.

Length 90 m; draft 5.2 m.

Type: Cargo ship. MMSI: 218815000.

Date/timePositionNaut miles runAvg speedWind from/ knotsBaromVisibWave heightAir tempDewpointWater temp
2017-Oct-17 00:20N 36°59' E 012°31'511.4
2017-Oct-16 23:54N 36°58' E 012°37'611.1
2017-Oct-16 23:22N 36°57' E 012°44'511.0
2017-Oct-16 22:57N 36°55' E 012°49'511.2
2017-Oct-16 22:30N 36°54' E 012°56'611.3
2017-Oct-16 22:00N 36°53' E 013°02'711.1
2017-Oct-16 21:25N 36°52' E 013°10'711.1
2017-Oct-16 20:49N 36°50' E 013°18'411.0
2017-Oct-16 20:30N 36°49' E 013°23'710.9
2017-Oct-16 19:54N 36°47' E 013°30'510.8
2017-Oct-16 19:27N 36°46' E 013°36'510.7
2017-Oct-16 19:00N 36°45' E 013°42'510.8
2017-Oct-16 18:30N 36°44' E 013°49'510.8
2017-Oct-16 18:00N 36°42' E 013°55'510.5
2017-Oct-16 17:30N 36°41' E 014°02'510.6
2017-Oct-16 17:00N 36°40' E 014°08'510.3
2017-Oct-16 16:30N 36°39' E 014°14'510.2
2017-Oct-16 16:00N 36°38' E 014°21'910.6
2017-Oct-16 15:09N 36°37' E 014°32'210.7
2017-Oct-16 14:57N 36°37' E 014°34'6710.2
2017-Oct-16 08:24N 37°13' E 015°45'1310.6
2017-Oct-16 07:12N 37°23' E 015°55'310.2
2017-Oct-16 06:52N 37°26' E 015°57'410.3
2017-Oct-16 06:26N 37°29' E 016°01'610.4
2017-Oct-16 05:49N 37°34' E 016°06'411.0
2017-Oct-16 05:25N 37°37' E 016°10'10111.6
2017-Oct-15 20:42N 38°57' E 017°29'411.3
2017-Oct-15 20:24N 39°00' E 017°31'511.3
2017-Oct-15 20:00N 39°04' E 017°35'611.4
2017-Oct-15 19:29N 39°08' E 017°40'1211.4
2017-Oct-15 18:26N 39°17' E 017°51'811.8
2017-Oct-15 17:48N 39°22' E 017°57'23710.1
2017-Oct-14 18:16N 42°49' E 015°23'9611.3
2017-Oct-14 09:51N 44°05' E 014°03'411.5
2017-Oct-14 09:30N 44°08' E 013°60'611.6
2017-Oct-14 09:00N 44°13' E 013°55'611.7
2017-Oct-14 08:30N 44°18' E 013°51'611.8
2017-Oct-14 08:00N 44°23' E 013°46'611.8
2017-Oct-14 07:30N 44°28' E 013°42'611.8
2017-Oct-14 07:00N 44°33' E 013°37'611.7
2017-Oct-14 06:30N 44°38' E 013°33'611.7
2017-Oct-14 06:00N 44°43' E 013°28'611.7
2017-Oct-14 05:30N 44°48' E 013°24'611.7
2017-Oct-14 05:00N 44°53' E 013°20'611.6
2017-Oct-14 04:30N 44°57' E 013°15'611.5
2017-Oct-14 04:00N 45°02' E 013°11'611.8
2017-Oct-14 03:30N 45°07' E 013°06'611.5
2017-Oct-14 03:00N 45°13' E 013°04'611.5
2017-Oct-14 02:30N 45°18' E 013°02'510.2
2017-Oct-14 02:00N 45°23' E 013°04'611.6
2017-Oct-14 01:30N 45°27' E 013°10'611.6
2017-Oct-14 01:00N 45°31' E 013°16'5 9.8
2017-Oct-14 00:30N 45°34' E 013°21'611.6
2017-Oct-14 00:00N 45°37' E 013°29'510.8
2017-Oct-13 23:30N 45°38' E 013°36'611.6
2017-Oct-13 23:00N 45°34' E 013°42'1 2.5
2017-Oct-13 22:28N 45°33' E 013°44'0 0.0
2017-Oct-13 21:52N 45°33' E 013°44'0 0.0
2017-Oct-13 21:28N 45°33' E 013°44'0 0.0
2017-Oct-13 20:55N 45°33' E 013°44'0 0.0
2017-Oct-13 20:25N 45°33' E 013°44'0 0.0
2017-Oct-13 19:57N 45°33' E 013°44'0 0.0
2017-Oct-13 19:30N 45°33' E 013°44'0 0.1
2017-Oct-13 19:00N 45°33' E 013°44'0 0.1
2017-Oct-13 18:27N 45°33' E 013°44'0 0.0
2017-Oct-13 17:57N 45°33' E 013°44'0 0.0
2017-Oct-13 17:30N 45°33' E 013°44'0 0.0
2017-Oct-13 16:59N 45°33' E 013°44'0 0.0
2017-Oct-13 16:23N 45°33' E 013°44'0 0.0
2017-Oct-13 15:59N 45°33' E 013°44'0 0.0
2017-Oct-13 15:23N 45°33' E 013°44'0 0.0
2017-Oct-13 14:50N 45°33' E 013°44'0 0.0
2017-Oct-13 14:30N 45°33' E 013°44'0 0.0
2017-Oct-13 13:58N 45°33' E 013°44'0 0.0
2017-Oct-13 13:30N 45°33' E 013°44'0 0.0
2017-Oct-13 12:59N 45°33' E 013°44'0 0.0
2017-Oct-13 12:31N 45°33' E 013°44'0 0.1
2017-Oct-13 11:59N 45°33' E 013°44'0 0.0
2017-Oct-13 11:28N 45°33' E 013°44'0 0.0
2017-Oct-13 10:55N 45°33' E 013°44'0 0.0
2017-Oct-13 10:28N 45°33' E 013°44'0 0.0
2017-Oct-13 09:58N 45°33' E 013°44'0 0.0
2017-Oct-13 09:30N 45°33' E 013°44'0 0.0
2017-Oct-13 08:57N 45°33' E 013°44'0 0.0
2017-Oct-13 08:30N 45°33' E 013°44'0 0.0
2017-Oct-13 07:57N 45°33' E 013°44'0 0.0
2017-Oct-13 07:30N 45°33' E 013°44'0 0.0
2017-Oct-13 06:59N 45°33' E 013°44'0 0.0
2017-Oct-13 06:29N 45°33' E 013°44'0 0.0
2017-Oct-13 05:59N 45°33' E 013°44'0 0.0
2017-Oct-13 05:29N 45°33' E 013°44'0 0.0
2017-Oct-13 04:58N 45°33' E 013°44'0 0.0
2017-Oct-13 04:25N 45°33' E 013°44'0 0.0
2017-Oct-13 03:52N 45°33' E 013°44'0 0.0
2017-Oct-13 03:25N 45°33' E 013°44'0 0.0
2017-Oct-13 02:49N 45°33' E 013°44'0 0.0
2017-Oct-13 02:27N 45°33' E 013°44'0 0.0
2017-Oct-13 02:00N 45°33' E 013°44'0 0.0
2017-Oct-13 01:30N 45°33' E 013°44'0 0.0
2017-Oct-13 00:57N 45°33' E 013°44'0 0.0
2017-Oct-13 00:27N 45°33' E 013°44'0 0.0
2017-Oct-12 23:59N 45°33' E 013°44'0 0.0
2017-Oct-12 23:29N 45°33' E 013°44'0 0.0
2017-Oct-12 22:59N 45°33' E 013°44'0 0.0
2017-Oct-12 22:29N 45°33' E 013°44'0 0.0
2017-Oct-12 21:58N 45°33' E 013°44'0 0.0
2017-Oct-12 21:28N 45°33' E 013°44'0 0.0
2017-Oct-12 20:58N 45°33' E 013°44'0 0.0
2017-Oct-12 20:28N 45°33' E 013°44'0 0.0
2017-Oct-12 19:58N 45°33' E 013°44'0 0.0
2017-Oct-12 19:27N 45°33' E 013°44'0 0.1
2017-Oct-12 18:57N 45°33' E 013°44'0 0.0
2017-Oct-12 18:26N 45°33' E 013°44'0 0.0
2017-Oct-12 17:59N 45°33' E 013°44'0 0.0
2017-Oct-12 17:30N 45°33' E 013°44'1 1.8
2017-Oct-12 17:00N 45°33' E 013°43'1 1.5
2017-Oct-12 16:29N 45°34' E 013°43'0 0.0
2017-Oct-12 15:59N 45°34' E 013°43'0 0.0
2017-Oct-12 15:28N 45°34' E 013°43'0 0.0
2017-Oct-12 14:58N 45°34' E 013°43'0 0.0
2017-Oct-12 14:22N 45°34' E 013°43'0 0.0
2017-Oct-12 13:49N 45°34' E 013°43'0 0.0
2017-Oct-12 13:30N 45°34' E 013°42'0 0.0
2017-Oct-12 13:00N 45°34' E 013°42'0 0.0
2017-Oct-12 12:27N 45°34' E 013°42'0 0.0
2017-Oct-12 11:48N 45°34' E 013°42'0 0.0
2017-Oct-12 11:26N 45°34' E 013°42'0 0.0
2017-Oct-12 10:53N 45°34' E 013°42'0 0.0
2017-Oct-12 10:29N 45°34' E 013°42'0 0.0
2017-Oct-12 09:59N 45°34' E 013°42'0 0.0
2017-Oct-12 09:29N 45°34' E 013°42'0 0.0
2017-Oct-12 08:58N 45°34' E 013°42'0 0.0
2017-Oct-12 08:28N 45°34' E 013°42'0 0.0
2017-Oct-12 07:58N 45°34' E 013°42'0 0.0
2017-Oct-12 07:28N 45°34' E 013°42'0 0.0
2017-Oct-12 06:55N 45°34' E 013°42'0 0.0
2017-Oct-12 06:30N 45°34' E 013°42'0 0.0
2017-Oct-12 06:00N 45°34' E 013°42'0 0.0
2017-Oct-12 05:30N 45°34' E 013°42'0 0.0
2017-Oct-12 04:57N 45°34' E 013°42'0 0.0
2017-Oct-12 04:26N 45°34' E 013°42'0 0.0
2017-Oct-12 03:56N 45°34' E 013°42'0 0.0
2017-Oct-12 03:29N 45°34' E 013°42'0 0.0
2017-Oct-12 02:59N 45°34' E 013°42'0 0.0
2017-Oct-12 02:29N 45°34' E 013°42'0 0.0
2017-Oct-12 01:58N 45°34' E 013°42'0 0.0
2017-Oct-12 01:28N 45°34' E 013°42'0 0.0
2017-Oct-12 00:58N 45°34' E 013°42'0 0.0
2017-Oct-12 00:28N 45°34' E 013°42'0 0.0
2017-Oct-11 23:58N 45°34' E 013°42'0 0.0
2017-Oct-11 23:30N 45°34' E 013°42'0 0.0
2017-Oct-11 23:00N 45°34' E 013°42'0 0.0
2017-Oct-11 22:30N 45°34' E 013°42'0 0.0
2017-Oct-11 21:51N 45°34' E 013°42'0 0.0
2017-Oct-11 21:29N 45°34' E 013°42'0 0.0
2017-Oct-11 20:59N 45°34' E 013°42'0 0.0
2017-Oct-11 20:20N 45°34' E 013°42'0 0.0
2017-Oct-11 19:59N 45°34' E 013°42'0 0.0
2017-Oct-11 19:29N 45°34' E 013°42'0 0.0
2017-Oct-11 18:58N 45°34' E 013°43'1 1.7
2017-Oct-11 18:30N 45°34' E 013°41'510.8
2017-Oct-11 18:00N 45°34' E 013°34'612.1
2017-Oct-11 17:30N 45°32' E 013°26'612.5
2017-Oct-11 17:00N 45°28' E 013°18'  
2017-Oct-08 13:14N 44°30' E 012°27'0 0.0
2017-Oct-08 12:55N 44°30' E 012°27'0 0.0
2017-Oct-08 12:25N 44°30' E 012°27'0 0.0
2017-Oct-08 11:58N 44°30' E 012°27'0 0.0
2017-Oct-08 11:28N 44°30' E 012°27'0 0.0
2017-Oct-08 10:57N 44°30' E 012°27'0 0.0
2017-Oct-08 10:18N 44°30' E 012°27'0 0.2
2017-Oct-08 10:00N 44°30' E 012°27'2 4.3
2017-Oct-08 09:30N 44°29' E 012°29'4 8.2
2017-Oct-08 09:00N 44°28' E 012°35'3 5.9
2017-Oct-08 08:30N 44°28' E 012°39'6 5.2
2017-Oct-08 07:14N 44°26' E 012°47'1 5.2
2017-Oct-08 07:00N 44°25' E 012°49'3 5.4
2017-Oct-08 06:30N 44°24' E 012°53'3 5.4
2017-Oct-08 06:00N 44°23' E 012°56'3 5.6
2017-Oct-08 05:30N 44°22' E 012°60'3 6.1
2017-Oct-08 05:00N 44°21' E 013°04'20 6.2
2017-Oct-08 01:48N 44°11' E 013°27'3 6.0
2017-Oct-08 01:21N 44°09' E 013°31'2 6.4
2017-Oct-08 01:00N 44°08' E 013°33'  
Track history (hours):
 
Tides and Currents Weather Stations Pressure Air Temp Water Temp Dewpoint Dewpoint Depression Visibility Wind Speed Wind Dir Waves Ship Positions

Bremer Johanna

Last reported at 2017-Oct-17 00:20 UTC. Time now 2017-Oct-19 16:28 UTC.
Position N 36°59' E 012°31'.

Length 90 m; draft 5.2 m.

Type: Cargo ship. MMSI: 218815000.

Date/timePositionNaut miles runAvg speedWind from/ knotsBaromVisibWave heightAir tempDewpointWater temp
2017-Oct-17 00:20N 36°59' E 012°31'511.4
2017-Oct-16 23:54N 36°58' E 012°37'611.1
2017-Oct-16 23:22N 36°57' E 012°44'511.0
2017-Oct-16 22:57N 36°55' E 012°49'511.2
2017-Oct-16 22:30N 36°54' E 012°56'611.3
2017-Oct-16 22:00N 36°53' E 013°02'711.1
2017-Oct-16 21:25N 36°52' E 013°10'711.1
2017-Oct-16 20:49N 36°50' E 013°18'411.0
2017-Oct-16 20:30N 36°49' E 013°23'710.9
2017-Oct-16 19:54N 36°47' E 013°30'510.8
2017-Oct-16 19:27N 36°46' E 013°36'510.7
2017-Oct-16 19:00N 36°45' E 013°42'510.8
2017-Oct-16 18:30N 36°44' E 013°49'510.8
2017-Oct-16 18:00N 36°42' E 013°55'510.5
2017-Oct-16 17:30N 36°41' E 014°02'510.6
2017-Oct-16 17:00N 36°40' E 014°08'510.3
2017-Oct-16 16:30N 36°39' E 014°14'510.2
2017-Oct-16 16:00N 36°38' E 014°21'910.6
2017-Oct-16 15:09N 36°37' E 014°32'210.7
2017-Oct-16 14:57N 36°37' E 014°34'6710.2
2017-Oct-16 08:24N 37°13' E 015°45'1310.6
2017-Oct-16 07:12N 37°23' E 015°55'310.2
2017-Oct-16 06:52N 37°26' E 015°57'410.3
2017-Oct-16 06:26N 37°29' E 016°01'610.4
2017-Oct-16 05:49N 37°34' E 016°06'411.0
2017-Oct-16 05:25N 37°37' E 016°10'10111.6
2017-Oct-15 20:42N 38°57' E 017°29'411.3
2017-Oct-15 20:24N 39°00' E 017°31'511.3
2017-Oct-15 20:00N 39°04' E 017°35'611.4
2017-Oct-15 19:29N 39°08' E 017°40'1211.4
2017-Oct-15 18:26N 39°17' E 017°51'811.8
2017-Oct-15 17:48N 39°22' E 017°57'23710.1
2017-Oct-14 18:16N 42°49' E 015°23'9611.3
2017-Oct-14 09:51N 44°05' E 014°03'411.5
2017-Oct-14 09:30N 44°08' E 013°60'611.6
2017-Oct-14 09:00N 44°13' E 013°55'611.7
2017-Oct-14 08:30N 44°18' E 013°51'611.8
2017-Oct-14 08:00N 44°23' E 013°46'611.8
2017-Oct-14 07:30N 44°28' E 013°42'611.8
2017-Oct-14 07:00N 44°33' E 013°37'611.7
2017-Oct-14 06:30N 44°38' E 013°33'611.7
2017-Oct-14 06:00N 44°43' E 013°28'611.7
2017-Oct-14 05:30N 44°48' E 013°24'611.7
2017-Oct-14 05:00N 44°53' E 013°20'611.6
2017-Oct-14 04:30N 44°57' E 013°15'611.5
2017-Oct-14 04:00N 45°02' E 013°11'611.8
2017-Oct-14 03:30N 45°07' E 013°06'611.5
2017-Oct-14 03:00N 45°13' E 013°04'611.5
2017-Oct-14 02:30N 45°18' E 013°02'510.2
2017-Oct-14 02:00N 45°23' E 013°04'611.6
2017-Oct-14 01:30N 45°27' E 013°10'611.6
2017-Oct-14 01:00N 45°31' E 013°16'5 9.8
2017-Oct-14 00:30N 45°34' E 013°21'611.6
2017-Oct-14 00:00N 45°37' E 013°29'510.8
2017-Oct-13 23:30N 45°38' E 013°36'611.6
2017-Oct-13 23:00N 45°34' E 013°42'1 2.5
2017-Oct-13 22:28N 45°33' E 013°44'0 0.0
2017-Oct-13 21:52N 45°33' E 013°44'0 0.0
2017-Oct-13 21:28N 45°33' E 013°44'0 0.0
2017-Oct-13 20:55N 45°33' E 013°44'0 0.0
2017-Oct-13 20:25N 45°33' E 013°44'0 0.0
2017-Oct-13 19:57N 45°33' E 013°44'0 0.0
2017-Oct-13 19:30N 45°33' E 013°44'0 0.1
2017-Oct-13 19:00N 45°33' E 013°44'0 0.1
2017-Oct-13 18:27N 45°33' E 013°44'0 0.0
2017-Oct-13 17:57N 45°33' E 013°44'0 0.0
2017-Oct-13 17:30N 45°33' E 013°44'0 0.0
2017-Oct-13 16:59N 45°33' E 013°44'0 0.0
2017-Oct-13 16:23N 45°33' E 013°44'0 0.0
2017-Oct-13 15:59N 45°33' E 013°44'0 0.0
2017-Oct-13 15:23N 45°33' E 013°44'0 0.0
2017-Oct-13 14:50N 45°33' E 013°44'0 0.0
2017-Oct-13 14:30N 45°33' E 013°44'0 0.0
2017-Oct-13 13:58N 45°33' E 013°44'0 0.0
2017-Oct-13 13:30N 45°33' E 013°44'0 0.0
2017-Oct-13 12:59N 45°33' E 013°44'0 0.0
2017-Oct-13 12:31N 45°33' E 013°44'0 0.1
2017-Oct-13 11:59N 45°33' E 013°44'0 0.0
2017-Oct-13 11:28N 45°33' E 013°44'0 0.0
2017-Oct-13 10:55N 45°33' E 013°44'0 0.0
2017-Oct-13 10:28N 45°33' E 013°44'0 0.0
2017-Oct-13 09:58N 45°33' E 013°44'0 0.0
2017-Oct-13 09:30N 45°33' E 013°44'0 0.0
2017-Oct-13 08:57N 45°33' E 013°44'0 0.0
2017-Oct-13 08:30N 45°33' E 013°44'0 0.0
2017-Oct-13 07:57N 45°33' E 013°44'0 0.0
2017-Oct-13 07:30N 45°33' E 013°44'0 0.0
2017-Oct-13 06:59N 45°33' E 013°44'0 0.0
2017-Oct-13 06:29N 45°33' E 013°44'0 0.0
2017-Oct-13 05:59N 45°33' E 013°44'0 0.0
2017-Oct-13 05:29N 45°33' E 013°44'0 0.0
2017-Oct-13 04:58N 45°33' E 013°44'0 0.0
2017-Oct-13 04:25N 45°33' E 013°44'0 0.0
2017-Oct-13 03:52N 45°33' E 013°44'0 0.0
2017-Oct-13 03:25N 45°33' E 013°44'0 0.0
2017-Oct-13 02:49N 45°33' E 013°44'0 0.0
2017-Oct-13 02:27N 45°33' E 013°44'0 0.0
2017-Oct-13 02:00N 45°33' E 013°44'0 0.0
2017-Oct-13 01:30N 45°33' E 013°44'0 0.0
2017-Oct-13 00:57N 45°33' E 013°44'0 0.0
2017-Oct-13 00:27N 45°33' E 013°44'0 0.0
2017-Oct-12 23:59N 45°33' E 013°44'0 0.0
2017-Oct-12 23:29N 45°33' E 013°44'0 0.0
2017-Oct-12 22:59N 45°33' E 013°44'0 0.0
2017-Oct-12 22:29N 45°33' E 013°44'0 0.0
2017-Oct-12 21:58N 45°33' E 013°44'0 0.0
2017-Oct-12 21:28N 45°33' E 013°44'0 0.0
2017-Oct-12 20:58N 45°33' E 013°44'0 0.0
2017-Oct-12 20:28N 45°33' E 013°44'0 0.0
2017-Oct-12 19:58N 45°33' E 013°44'0 0.0
2017-Oct-12 19:27N 45°33' E 013°44'0 0.1
2017-Oct-12 18:57N 45°33' E 013°44'0 0.0
2017-Oct-12 18:26N 45°33' E 013°44'0 0.0
2017-Oct-12 17:59N 45°33' E 013°44'0 0.0
2017-Oct-12 17:30N 45°33' E 013°44'1 1.8
2017-Oct-12 17:00N 45°33' E 013°43'1 1.5
2017-Oct-12 16:29N 45°34' E 013°43'0 0.0
2017-Oct-12 15:59N 45°34' E 013°43'0 0.0
2017-Oct-12 15:28N 45°34' E 013°43'0 0.0
2017-Oct-12 14:58N 45°34' E 013°43'0 0.0
2017-Oct-12 14:22N 45°34' E 013°43'0 0.0
2017-Oct-12 13:49N 45°34' E 013°43'0 0.0
2017-Oct-12 13:30N 45°34' E 013°42'0 0.0
2017-Oct-12 13:00N 45°34' E 013°42'0 0.0
2017-Oct-12 12:27N 45°34' E 013°42'0 0.0
2017-Oct-12 11:48N 45°34' E 013°42'0 0.0
2017-Oct-12 11:26N 45°34' E 013°42'0 0.0
2017-Oct-12 10:53N 45°34' E 013°42'0 0.0
2017-Oct-12 10:29N 45°34' E 013°42'0 0.0
2017-Oct-12 09:59N 45°34' E 013°42'0 0.0
2017-Oct-12 09:29N 45°34' E 013°42'0 0.0
2017-Oct-12 08:58N 45°34' E 013°42'0 0.0
2017-Oct-12 08:28N 45°34' E 013°42'0 0.0
2017-Oct-12 07:58N 45°34' E 013°42'0 0.0
2017-Oct-12 07:28N 45°34' E 013°42'0 0.0
2017-Oct-12 06:55N 45°34' E 013°42'0 0.0
2017-Oct-12 06:30N 45°34' E 013°42'0 0.0
2017-Oct-12 06:00N 45°34' E 013°42'0 0.0
2017-Oct-12 05:30N 45°34' E 013°42'0 0.0
2017-Oct-12 04:57N 45°34' E 013°42'0 0.0
2017-Oct-12 04:26N 45°34' E 013°42'0 0.0
2017-Oct-12 03:56N 45°34' E 013°42'0 0.0
2017-Oct-12 03:29N 45°34' E 013°42'0 0.0
2017-Oct-12 02:59N 45°34' E 013°42'0 0.0
2017-Oct-12 02:29N 45°34' E 013°42'0 0.0
2017-Oct-12 01:58N 45°34' E 013°42'0 0.0
2017-Oct-12 01:28N 45°34' E 013°42'0 0.0
2017-Oct-12 00:58N 45°34' E 013°42'0 0.0
2017-Oct-12 00:28N 45°34' E 013°42'0 0.0
2017-Oct-11 23:58N 45°34' E 013°42'0 0.0
2017-Oct-11 23:30N 45°34' E 013°42'0 0.0
2017-Oct-11 23:00N 45°34' E 013°42'0 0.0
2017-Oct-11 22:30N 45°34' E 013°42'0 0.0
2017-Oct-11 21:51N 45°34' E 013°42'0 0.0
2017-Oct-11 21:29N 45°34' E 013°42'0 0.0
2017-Oct-11 20:59N 45°34' E 013°42'0 0.0
2017-Oct-11 20:20N 45°34' E 013°42'0 0.0
2017-Oct-11 19:59N 45°34' E 013°42'0 0.0
2017-Oct-11 19:29N 45°34' E 013°42'0 0.0
2017-Oct-11 18:58N 45°34' E 013°43'1 1.7
2017-Oct-11 18:30N 45°34' E 013°41'510.8
2017-Oct-11 18:00N 45°34' E 013°34'612.1
2017-Oct-11 17:30N 45°32' E 013°26'612.5
2017-Oct-11 17:00N 45°28' E 013°18'  
2017-Oct-08 13:14N 44°30' E 012°27'0 0.0
2017-Oct-08 12:55N 44°30' E 012°27'0 0.0
2017-Oct-08 12:25N 44°30' E 012°27'0 0.0
2017-Oct-08 11:58N 44°30' E 012°27'0 0.0
2017-Oct-08 11:28N 44°30' E 012°27'0 0.0
2017-Oct-08 10:57N 44°30' E 012°27'0 0.0
2017-Oct-08 10:18N 44°30' E 012°27'0 0.2
2017-Oct-08 10:00N 44°30' E 012°27'2 4.3
2017-Oct-08 09:30N 44°29' E 012°29'4 8.2
2017-Oct-08 09:00N 44°28' E 012°35'3 5.9
2017-Oct-08 08:30N 44°28' E 012°39'6 5.2
2017-Oct-08 07:14N 44°26' E 012°47'1 5.2
2017-Oct-08 07:00N 44°25' E 012°49'3 5.4
2017-Oct-08 06:30N 44°24' E 012°53'3 5.4
2017-Oct-08 06:00N 44°23' E 012°56'3 5.6
2017-Oct-08 05:30N 44°22' E 012°60'3 6.1
2017-Oct-08 05:00N 44°21' E 013°04'20 6.2
2017-Oct-08 01:48N 44°11' E 013°27'3 6.0
2017-Oct-08 01:21N 44°09' E 013°31'2 6.4
2017-Oct-08 01:00N 44°08' E 013°33'  

Dump ship's entire track history